Fish Lake Valley, Nevada Weather observations

Data are for 10 minute period ending at time listed.
 Day   Time    Ave.   Ave.  Ave.  Vector   Max.   Stn.    Total    Solar   Ave.  
  of    of     Air    Rel.  Wind   Wind    Wind   Baro.  Precip.   Rad.    Soil  
Year   Day     Temp.  Hum.  Speed  Dir.    Gust   Pres.                    Temp. 
2014   (PST)    F      %     mph   deg.    mph     mb.     in.     W/m2     F    
--------------------------------------------------------------------------------- 
 112    0:00   56.1    26    4.2   185      7.7   847.0    0.00       0    63.6  
 112    1:00   49.4    41    7.6   130     11.1   846.0    0.00       0    63.1  
 112    2:00   49.8    34    7.6   122     11.1   845.0    0.00       0    62.6  
 112    3:00   50.0    29    8.9   126     13.6   845.0    0.00       0    62.1  
 112    4:00   50.4    27    6.6   125     11.8   844.0    0.00       0    61.6  
 112    5:00   51.4    28    7.5   136     17.5   843.0    0.00       0    61.0  
 112    6:00   54.8    26   13.7   133     25.1   842.0    0.00      40    60.4  
 112    7:00   59.0    26   15.8   161     32.7   842.0    0.00     246    59.9  
 112    8:00   62.5    24   21.6   217     38.7   842.0    0.00     461    59.4  
 112    9:00   60.9    26   18.2   210     36.7   843.0    0.00     680    59.1  
 112   10:00   61.9    16   19.7   223     48.3   844.0    0.00     848    58.9  
 112   11:00   60.3    12   15.8   241     35.1   845.0    0.00     968    59.1  
 112   12:00   60.5    12   18.8   243     49.8   844.0    0.00    1014    59.4  
 112   13:00   61.2     8   19.1   268     42.8   845.0    0.00     994    59.9  
 112   14:00   58.7    14   21.0   322     45.7   845.0    0.00     795    60.6  
 112   15:00   58.4    13   21.2   314     43.3   845.0    0.00     768    61.4  
 112   16:00   57.6    18   16.2   351     29.1   845.0    0.00     582    62.0  
 112   17:00   56.2    19   16.9   355     29.9   846.0    0.00     366    62.6  
 112   18:00   53.9    21   14.1   335     24.5   846.0    0.00     167    63.1  
 112   19:00   49.7    23   15.2   353     29.6   846.0    0.00       7    63.4  
 112   20:00   48.1    22   19.7   358     31.1   848.0    0.00       0    63.4  
 112   21:00   45.8    28   15.3   356     28.4   849.0    0.00       0    63.2  
 112   22:00   43.4    32   11.6   325     20.2   850.0    0.00       0    62.7  
 112   23:00   41.9    36   12.9   320     21.2   850.0    0.00       0    62.1  

Return to Fish Lake Valley, Nevada graphs page.


Western Regional Climate Center,wrcc@dri.edu